sensor_id;sensor_type;location;lat;lon;timestamp;pressure;altitude;pressure_sealevel;temperature;humidity
25510;BME280;13413;52.336;21.200;2023-11-25T00:00:42;98006.44;;;3.59;74.24
25510;BME280;13413;52.336;21.200;2023-11-25T00:03:30;98006.75;;;3.54;74.77
25510;BME280;13413;52.336;21.200;2023-11-25T00:06:35;98006.39;;;3.53;74.76
25510;BME280;13413;52.336;21.200;2023-11-25T00:09:22;98008.55;;;3.55;74.99
25510;BME280;13413;52.336;21.200;2023-11-25T00:12:10;98007.05;;;3.55;75.09
25510;BME280;13413;52.336;21.200;2023-11-25T00:14:57;98008.70;;;3.54;75.25
25510;BME280;13413;52.336;21.200;2023-11-25T00:17:45;98010.58;;;3.53;75.31
25510;BME280;13413;52.336;21.200;2023-11-25T00:20:32;98012.91;;;3.56;75.42
25510;BME280;13413;52.336;21.200;2023-11-25T00:23:20;98015.98;;;3.56;75.49
25510;BME280;13413;52.336;21.200;2023-11-25T00:26:08;98015.86;;;3.54;75.48
25510;BME280;13413;52.336;21.200;2023-11-25T00:28:56;98019.08;;;3.56;75.37
25510;BME280;13413;52.336;21.200;2023-11-25T00:31:46;98016.44;;;3.59;75.41
25510;BME280;13413;52.336;21.200;2023-11-25T00:34:34;98014.81;;;3.61;75.29
25510;BME280;13413;52.336;21.200;2023-11-25T00:37:21;98016.47;;;3.62;75.27
25510;BME280;13413;52.336;21.200;2023-11-25T00:40:10;98023.10;;;3.63;75.36
25510;BME280;13413;52.336;21.200;2023-11-25T00:42:58;98028.59;;;3.66;75.40
25510;BME280;13413;52.336;21.200;2023-11-25T00:45:45;98029.88;;;3.62;75.54
25510;BME280;13413;52.336;21.200;2023-11-25T00:48:33;98028.52;;;3.60;75.74
25510;BME280;13413;52.336;21.200;2023-11-25T00:51:21;98029.60;;;3.60;75.75
25510;BME280;13413;52.336;21.200;2023-11-25T00:54:09;98028.17;;;3.59;75.81
25510;BME280;13413;52.336;21.200;2023-11-25T00:56:56;98026.99;;;3.58;75.90
25510;BME280;13413;52.336;21.200;2023-11-25T00:59:44;98026.60;;;3.59;75.84
25510;BME280;13413;52.336;21.200;2023-11-25T01:02:31;98025.98;;;3.61;75.87
25510;BME280;13413;52.336;21.200;2023-11-25T01:05:19;98024.21;;;3.63;75.84
25510;BME280;13413;52.336;21.200;2023-11-25T01:08:07;98033.23;;;3.61;76.13
25510;BME280;13413;52.336;21.200;2023-11-25T01:10:54;98030.33;;;3.60;76.16
25510;BME280;13413;52.336;21.200;2023-11-25T01:13:41;98029.57;;;3.61;76.16
25510;BME280;13413;52.336;21.200;2023-11-25T01:16:29;98030.20;;;3.60;76.19
25510;BME280;13413;52.336;21.200;2023-11-25T01:19:16;98031.59;;;3.61;75.98
25510;BME280;13413;52.336;21.200;2023-11-25T01:22:04;98032.54;;;3.63;76.09
25510;BME280;13413;52.336;21.200;2023-11-25T01:24:51;98034.16;;;3.66;75.82
25510;BME280;13413;52.336;21.200;2023-11-25T01:27:39;98034.13;;;3.66;75.83
25510;BME280;13413;52.336;21.200;2023-11-25T01:30:26;98032.76;;;3.67;75.73
25510;BME280;13413;52.336;21.200;2023-11-25T01:33:14;98031.45;;;3.68;75.71
25510;BME280;13413;52.336;21.200;2023-11-25T01:36:01;98030.93;;;3.69;75.79
25510;BME280;13413;52.336;21.200;2023-11-25T01:38:49;98027.55;;;3.68;75.80
25510;BME280;13413;52.336;21.200;2023-11-25T01:41:36;98026.33;;;3.68;75.45
25510;BME280;13413;52.336;21.200;2023-11-25T01:44:23;98025.65;;;3.68;75.30
25510;BME280;13413;52.336;21.200;2023-11-25T01:47:13;98029.73;;;3.70;75.45
25510;BME280;13413;52.336;21.200;2023-11-25T01:49:59;98023.58;;;3.72;75.38
25510;BME280;13413;52.336;21.200;2023-11-25T02:01:31;98030.34;;;3.70;75.15
25510;BME280;13413;52.336;21.200;2023-11-25T02:04:18;98034.82;;;3.67;75.08
25510;BME280;13413;52.336;21.200;2023-11-25T02:07:05;98035.79;;;3.71;75.32
25510;BME280;13413;52.336;21.200;2023-11-25T02:09:53;98038.18;;;3.74;75.02
25510;BME280;13413;52.336;21.200;2023-11-25T02:12:40;98038.16;;;3.70;74.99
25510;BME280;13413;52.336;21.200;2023-11-25T02:15:28;98039.77;;;3.64;74.93
25510;BME280;13413;52.336;21.200;2023-11-25T02:18:15;98044.36;;;3.61;75.26
25510;BME280;13413;52.336;21.200;2023-11-25T02:21:02;98048.20;;;3.62;75.26
25510;BME280;13413;52.336;21.200;2023-11-25T02:23:50;98052.35;;;3.63;75.07
25510;BME280;13413;52.336;21.200;2023-11-25T02:26:37;98058.40;;;3.62;75.07
25510;BME280;13413;52.336;21.200;2023-11-25T02:29:25;98060.40;;;3.60;74.98
25510;BME280;13413;52.336;21.200;2023-11-25T02:32:12;98058.40;;;3.58;75.05
25510;BME280;13413;52.336;21.200;2023-11-25T02:35:01;98058.71;;;3.56;75.18
25510;BME280;13413;52.336;21.200;2023-11-25T02:37:48;98060.56;;;3.56;74.89
25510;BME280;13413;52.336;21.200;2023-11-25T02:40:35;98056.80;;;3.55;75.11
25510;BME280;13413;52.336;21.200;2023-11-25T02:43:23;98055.14;;;3.54;75.26
25510;BME280;13413;52.336;21.200;2023-11-25T02:46:10;98060.42;;;3.50;74.99
25510;BME280;13413;52.336;21.200;2023-11-25T02:48:57;98064.70;;;3.46;74.95
25510;BME280;13413;52.336;21.200;2023-11-25T02:51:49;98066.56;;;3.47;75.01
25510;BME280;13413;52.336;21.200;2023-11-25T02:54:37;98065.89;;;3.48;75.11
25510;BME280;13413;52.336;21.200;2023-11-25T02:57:24;98069.54;;;3.51;75.13
25510;BME280;13413;52.336;21.200;2023-11-25T03:00:13;98067.88;;;3.50;74.72
25510;BME280;13413;52.336;21.200;2023-11-25T03:03:02;98069.48;;;3.49;74.79
25510;BME280;13413;52.336;21.200;2023-11-25T03:05:49;98077.02;;;3.46;74.80
25510;BME280;13413;52.336;21.200;2023-11-25T03:08:36;98077.08;;;3.42;74.94
25510;BME280;13413;52.336;21.200;2023-11-25T03:11:24;98080.66;;;3.43;74.95
25510;BME280;13413;52.336;21.200;2023-11-25T03:14:11;98078.99;;;3.41;74.94
25510;BME280;13413;52.336;21.200;2023-11-25T03:16:58;98081.64;;;3.39;74.90
25510;BME280;13413;52.336;21.200;2023-11-25T03:19:46;98087.71;;;3.42;75.05
25510;BME280;13413;52.336;21.200;2023-11-25T03:22:33;98092.23;;;3.44;75.20
25510;BME280;13413;52.336;21.200;2023-11-25T03:25:20;98092.73;;;3.40;75.09
25510;BME280;13413;52.336;21.200;2023-11-25T03:28:09;98100.80;;;3.37;74.90
25510;BME280;13413;52.336;21.200;2023-11-25T03:30:56;98107.01;;;3.36;75.17
25510;BME280;13413;52.336;21.200;2023-11-25T03:33:43;98103.73;;;3.36;75.17
25510;BME280;13413;52.336;21.200;2023-11-25T03:36:30;98105.25;;;3.35;75.22
25510;BME280;13413;52.336;21.200;2023-11-25T03:39:19;98109.11;;;3.35;75.21
25510;BME280;13413;52.336;21.200;2023-11-25T03:42:07;98111.48;;;3.32;75.15
25510;BME280;13413;52.336;21.200;2023-11-25T03:44:54;98111.23;;;3.33;75.24
25510;BME280;13413;52.336;21.200;2023-11-25T03:47:42;98108.97;;;3.33;75.38
25510;BME280;13413;52.336;21.200;2023-11-25T03:50:30;98114.81;;;3.32;75.53
25510;BME280;13413;52.336;21.200;2023-11-25T03:53:17;98115.14;;;3.33;75.38
25510;BME280;13413;52.336;21.200;2023-11-25T03:56:05;98113.41;;;3.34;75.38
25510;BME280;13413;52.336;21.200;2023-11-25T03:58:52;98121.16;;;3.35;75.36
25510;BME280;13413;52.336;21.200;2023-11-25T04:01:39;98126.11;;;3.34;75.57
25510;BME280;13413;52.336;21.200;2023-11-25T04:04:26;98129.42;;;3.31;75.46
25510;BME280;13413;52.336;21.200;2023-11-25T04:07:14;98131.38;;;3.28;75.38
25510;BME280;13413;52.336;21.200;2023-11-25T04:10:01;98130.60;;;3.28;75.63
25510;BME280;13413;52.336;21.200;2023-11-25T04:12:47;98130.17;;;3.26;75.55
25510;BME280;13413;52.336;21.200;2023-11-25T04:24:01;98138.78;;;3.24;75.76
25510;BME280;13413;52.336;21.200;2023-11-25T04:26:47;98137.49;;;3.15;76.39
25510;BME280;13413;52.336;21.200;2023-11-25T04:29:35;98139.34;;;3.07;76.53
25510;BME280;13413;52.336;21.200;2023-11-25T04:32:22;98150.36;;;3.04;77.10
25510;BME280;13413;52.336;21.200;2023-11-25T04:35:10;98152.79;;;2.98;77.08
25510;BME280;13413;52.336;21.200;2023-11-25T04:37:58;98156.27;;;2.96;76.99
25510;BME280;13413;52.336;21.200;2023-11-25T04:40:45;98156.31;;;2.96;76.93
25510;BME280;13413;52.336;21.200;2023-11-25T04:43:32;98160.45;;;3.00;76.88
25510;BME280;13413;52.336;21.200;2023-11-25T04:46:19;98160.97;;;2.98;77.16
25510;BME280;13413;52.336;21.200;2023-11-25T04:49:06;98159.89;;;2.97;76.93
25510;BME280;13413;52.336;21.200;2023-11-25T04:51:54;98159.54;;;2.94;77.13
25510;BME280;13413;52.336;21.200;2023-11-25T04:54:41;98162.52;;;2.92;77.18
25510;BME280;13413;52.336;21.200;2023-11-25T04:57:28;98156.34;;;2.93;77.06
25510;BME280;13413;52.336;21.200;2023-11-25T05:00:16;98162.02;;;2.95;77.02
25510;BME280;13413;52.336;21.200;2023-11-25T05:03:03;98167.25;;;2.97;76.94
25510;BME280;13413;52.336;21.200;2023-11-25T05:05:50;98168.95;;;2.96;76.96
25510;BME280;13413;52.336;21.200;2023-11-25T05:08:38;98175.52;;;2.93;77.32
25510;BME280;13413;52.336;21.200;2023-11-25T05:11:26;98181.83;;;2.92;77.35
25510;BME280;13413;52.336;21.200;2023-11-25T05:14:13;98188.38;;;2.94;77.15
25510;BME280;13413;52.336;21.200;2023-11-25T05:17:01;98186.29;;;2.92;77.61
25510;BME280;13413;52.336;21.200;2023-11-25T05:19:48;98194.70;;;2.94;77.28
25510;BME280;13413;52.336;21.200;2023-11-25T05:22:35;98195.25;;;2.93;77.38
25510;BME280;13413;52.336;21.200;2023-11-25T05:25:22;98197.08;;;2.93;77.67
25510;BME280;13413;52.336;21.200;2023-11-25T05:28:10;98196.04;;;2.91;77.59
25510;BME280;13413;52.336;21.200;2023-11-25T05:30:57;98198.59;;;2.90;77.77
25510;BME280;13413;52.336;21.200;2023-11-25T05:33:46;98203.42;;;2.92;77.35
25510;BME280;13413;52.336;21.200;2023-11-25T05:36:34;98205.99;;;2.93;77.53
25510;BME280;13413;52.336;21.200;2023-11-25T05:39:21;98212.54;;;2.91;78.00
25510;BME280;13413;52.336;21.200;2023-11-25T05:42:08;98218.59;;;2.89;77.91
25510;BME280;13413;52.336;21.200;2023-11-25T05:44:55;98225.66;;;2.93;77.80
25510;BME280;13413;52.336;21.200;2023-11-25T05:47:43;98229.29;;;2.96;78.01
25510;BME280;13413;52.336;21.200;2023-11-25T05:50:30;98237.49;;;2.95;78.03
25510;BME280;13413;52.336;21.200;2023-11-25T05:53:18;98239.04;;;2.94;77.95
25510;BME280;13413;52.336;21.200;2023-11-25T05:56:06;98245.38;;;2.95;77.97
25510;BME280;13413;52.336;21.200;2023-11-25T05:58:53;98245.67;;;2.98;77.90
25510;BME280;13413;52.336;21.200;2023-11-25T06:01:40;98248.26;;;3.01;78.01
25510;BME280;13413;52.336;21.200;2023-11-25T06:04:28;98251.43;;;2.98;78.00
25510;BME280;13413;52.336;21.200;2023-11-25T06:07:15;98250.27;;;2.96;78.13
25510;BME280;13413;52.336;21.200;2023-11-25T06:10:03;98250.77;;;2.96;78.19
25510;BME280;13413;52.336;21.200;2023-11-25T06:12:51;98251.30;;;2.98;78.14
25510;BME280;13413;52.336;21.200;2023-11-25T06:15:38;98254.73;;;2.98;78.06
25510;BME280;13413;52.336;21.200;2023-11-25T06:18:26;98263.05;;;2.99;78.31
25510;BME280;13413;52.336;21.200;2023-11-25T06:21:13;98267.58;;;3.00;78.36
25510;BME280;13413;52.336;21.200;2023-11-25T06:24:00;98269.36;;;3.01;78.38
25510;BME280;13413;52.336;21.200;2023-11-25T06:26:47;98274.27;;;2.98;78.33
25510;BME280;13413;52.336;21.200;2023-11-25T06:29:35;98280.57;;;2.97;78.22
25510;BME280;13413;52.336;21.200;2023-11-25T06:32:23;98283.14;;;2.99;78.18
25510;BME280;13413;52.336;21.200;2023-11-25T06:35:09;98292.66;;;3.02;78.37
25510;BME280;13413;52.336;21.200;2023-11-25T06:46:22;98310.72;;;3.00;78.59
25510;BME280;13413;52.336;21.200;2023-11-25T06:49:10;98312.05;;;2.89;78.60
25510;BME280;13413;52.336;21.200;2023-11-25T06:51:57;98314.56;;;2.84;78.39
25510;BME280;13413;52.336;21.200;2023-11-25T06:54:44;98318.80;;;2.82;78.51
25510;BME280;13413;52.336;21.200;2023-11-25T06:57:32;98328.11;;;2.83;78.61
25510;BME280;13413;52.336;21.200;2023-11-25T07:00:20;98330.55;;;2.84;78.53
25510;BME280;13413;52.336;21.200;2023-11-25T07:03:07;98331.53;;;2.85;78.61
25510;BME280;13413;52.336;21.200;2023-11-25T07:05:54;98329.14;;;2.84;78.74
25510;BME280;13413;52.336;21.200;2023-11-25T07:08:43;98332.40;;;2.86;78.72
25510;BME280;13413;52.336;21.200;2023-11-25T07:11:32;98327.73;;;2.86;78.64
25510;BME280;13413;52.336;21.200;2023-11-25T07:14:19;98328.77;;;2.86;78.36
25510;BME280;13413;52.336;21.200;2023-11-25T07:17:08;98331.73;;;2.85;78.35
25510;BME280;13413;52.336;21.200;2023-11-25T07:19:55;98336.06;;;2.83;78.58
25510;BME280;13413;52.336;21.200;2023-11-25T07:22:43;98345.73;;;2.81;78.17
25510;BME280;13413;52.336;21.200;2023-11-25T07:25:30;98346.13;;;2.79;78.52
25510;BME280;13413;52.336;21.200;2023-11-25T07:28:18;98348.47;;;2.77;78.73
25510;BME280;13413;52.336;21.200;2023-11-25T07:31:07;98354.42;;;2.73;78.52
25510;BME280;13413;52.336;21.200;2023-11-25T07:33:55;98362.15;;;2.76;78.64
25510;BME280;13413;52.336;21.200;2023-11-25T07:36:42;98366.52;;;2.79;78.50
25510;BME280;13413;52.336;21.200;2023-11-25T07:39:30;98368.90;;;2.85;78.34
25510;BME280;13413;52.336;21.200;2023-11-25T07:42:18;98370.77;;;2.90;78.31
25510;BME280;13413;52.336;21.200;2023-11-25T07:47:54;98378.06;;;2.88;78.13
25510;BME280;13413;52.336;21.200;2023-11-25T07:50:42;98385.24;;;2.91;78.24
25510;BME280;13413;52.336;21.200;2023-11-25T07:53:30;98387.95;;;2.92;77.95
25510;BME280;13413;52.336;21.200;2023-11-25T07:56:18;98387.52;;;2.94;77.89
25510;BME280;13413;52.336;21.200;2023-11-25T07:59:06;98391.36;;;3.00;78.23
25510;BME280;13413;52.336;21.200;2023-11-25T08:01:53;98393.98;;;3.02;77.95
25510;BME280;13413;52.336;21.200;2023-11-25T08:04:41;98395.66;;;2.99;77.94
25510;BME280;13413;52.336;21.200;2023-11-25T08:07:28;98393.94;;;2.99;77.90
25510;BME280;13413;52.336;21.200;2023-11-25T08:10:16;98396.60;;;3.00;77.93
25510;BME280;13413;52.336;21.200;2023-11-25T08:13:04;98406.17;;;3.03;78.14
25510;BME280;13413;52.336;21.200;2023-11-25T08:15:51;98404.70;;;3.07;78.17
25510;BME280;13413;52.336;21.200;2023-11-25T08:18:39;98404.38;;;3.11;78.08
25510;BME280;13413;52.336;21.200;2023-11-25T08:21:26;98400.55;;;3.12;77.72
25510;BME280;13413;52.336;21.200;2023-11-25T08:24:16;98404.46;;;3.12;77.80
25510;BME280;13413;52.336;21.200;2023-11-25T08:27:04;98408.34;;;3.13;77.59
25510;BME280;13413;52.336;21.200;2023-11-25T08:29:51;98406.57;;;3.15;77.53
25510;BME280;13413;52.336;21.200;2023-11-25T08:32:40;98411.54;;;3.15;77.47
25510;BME280;13413;52.336;21.200;2023-11-25T08:35:27;98414.88;;;3.15;77.19
25510;BME280;13413;52.336;21.200;2023-11-25T08:38:15;98416.17;;;3.15;77.41
25510;BME280;13413;52.336;21.200;2023-11-25T08:41:02;98420.02;;;3.12;76.94
25510;BME280;13413;52.336;21.200;2023-11-25T08:43:49;98417.31;;;3.09;77.01
25510;BME280;13413;52.336;21.200;2023-11-25T08:46:37;98419.70;;;3.10;77.04
25510;BME280;13413;52.336;21.200;2023-11-25T08:49:24;98423.34;;;3.13;76.94
25510;BME280;13413;52.336;21.200;2023-11-25T08:52:12;98426.15;;;3.15;76.90
25510;BME280;13413;52.336;21.200;2023-11-25T08:54:59;98432.92;;;3.13;76.69
25510;BME280;13413;52.336;21.200;2023-11-25T08:57:45;98437.90;;;3.11;76.59
25510;BME280;13413;52.336;21.200;2023-11-25T09:08:43;98446.58;;;3.14;76.37
25510;BME280;13413;52.336;21.200;2023-11-25T09:11:30;98450.27;;;3.11;76.35
25510;BME280;13413;52.336;21.200;2023-11-25T09:14:18;98449.82;;;3.14;76.70
25510;BME280;13413;52.336;21.200;2023-11-25T09:17:06;98455.86;;;3.16;76.63
25510;BME280;13413;52.336;21.200;2023-11-25T09:19:53;98461.02;;;3.13;76.30
25510;BME280;13413;52.336;21.200;2023-11-25T09:22:41;98466.98;;;3.11;76.46
25510;BME280;13413;52.336;21.200;2023-11-25T09:25:28;98470.38;;;3.11;76.84
25510;BME280;13413;52.336;21.200;2023-11-25T09:28:16;98474.42;;;3.12;76.73
25510;BME280;13413;52.336;21.200;2023-11-25T09:31:04;98470.29;;;3.12;76.69
25510;BME280;13413;52.336;21.200;2023-11-25T09:33:51;98474.76;;;3.05;76.55
25510;BME280;13413;52.336;21.200;2023-11-25T09:36:39;98476.33;;;2.96;76.88
25510;BME280;13413;52.336;21.200;2023-11-25T09:39:26;98475.95;;;2.93;76.96
25510;BME280;13413;52.336;21.200;2023-11-25T09:42:15;98478.02;;;2.96;77.22
25510;BME280;13413;52.336;21.200;2023-11-25T09:45:04;98474.94;;;2.99;77.53
25510;BME280;13413;52.336;21.200;2023-11-25T09:47:51;98476.95;;;3.00;77.48
25510;BME280;13413;52.336;21.200;2023-11-25T09:50:39;98478.17;;;2.93;77.61
25510;BME280;13413;52.336;21.200;2023-11-25T09:56:18;98477.75;;;2.94;77.95
25510;BME280;13413;52.336;21.200;2023-11-25T09:59:06;98478.66;;;2.94;78.06
25510;BME280;13413;52.336;21.200;2023-11-25T10:01:53;98478.57;;;2.87;77.79
25510;BME280;13413;52.336;21.200;2023-11-25T10:04:41;98481.17;;;2.79;78.16
25510;BME280;13413;52.336;21.200;2023-11-25T10:07:30;98483.77;;;2.72;78.33
25510;BME280;13413;52.336;21.200;2023-11-25T10:10:17;98484.93;;;2.66;78.57
25510;BME280;13413;52.336;21.200;2023-11-25T10:13:05;98482.72;;;2.64;78.57
25510;BME280;13413;52.336;21.200;2023-11-25T10:16:03;98485.22;;;2.62;78.83
25510;BME280;13413;52.336;21.200;2023-11-25T10:18:52;98483.02;;;2.57;78.86
25510;BME280;13413;52.336;21.200;2023-11-25T10:21:41;98482.55;;;2.55;78.97
25510;BME280;13413;52.336;21.200;2023-11-25T10:24:28;98489.55;;;2.51;79.43
25510;BME280;13413;52.336;21.200;2023-11-25T10:27:16;98489.01;;;2.47;79.44
25510;BME280;13413;52.336;21.200;2023-11-25T10:30:04;98489.95;;;2.48;79.37
25510;BME280;13413;52.336;21.200;2023-11-25T10:32:54;98495.49;;;2.43;79.48
25510;BME280;13413;52.336;21.200;2023-11-25T10:35:42;98497.27;;;2.42;79.42
25510;BME280;13413;52.336;21.200;2023-11-25T10:38:30;98501.55;;;2.46;79.40
25510;BME280;13413;52.336;21.200;2023-11-25T10:41:18;98506.95;;;2.46;79.71
25510;BME280;13413;52.336;21.200;2023-11-25T10:44:06;98498.77;;;2.46;79.77
25510;BME280;13413;52.336;21.200;2023-11-25T10:46:54;98506.14;;;2.48;79.68
25510;BME280;13413;52.336;21.200;2023-11-25T10:49:43;98510.77;;;2.46;80.05
25510;BME280;13413;52.336;21.200;2023-11-25T10:52:33;98518.11;;;2.41;79.90
25510;BME280;13413;52.336;21.200;2023-11-25T10:55:22;98521.24;;;2.41;79.86
25510;BME280;13413;52.336;21.200;2023-11-25T10:58:11;98524.18;;;2.41;80.06
25510;BME280;13413;52.336;21.200;2023-11-25T11:00:59;98526.16;;;2.44;79.81
25510;BME280;13413;52.336;21.200;2023-11-25T11:03:56;98526.17;;;2.44;79.89
25510;BME280;13413;52.336;21.200;2023-11-25T11:06:48;98524.39;;;2.47;79.87
25510;BME280;13413;52.336;21.200;2023-11-25T11:09:39;98524.70;;;2.52;79.75
25510;BME280;13413;52.336;21.200;2023-11-25T11:12:32;98529.42;;;2.51;80.03
25510;BME280;13413;52.336;21.200;2023-11-25T11:15:21;98530.58;;;2.48;79.93
25510;BME280;13413;52.336;21.200;2023-11-25T11:18:18;98530.98;;;2.46;79.85
25510;BME280;13413;52.336;21.200;2023-11-25T11:21:05;98533.32;;;2.49;79.54
25510;BME280;13413;52.336;21.200;2023-11-25T11:32:01;98531.20;;;2.64;79.67
25510;BME280;13413;52.336;21.200;2023-11-25T11:35:03;98535.27;;;2.67;79.47
25510;BME280;13413;52.336;21.200;2023-11-25T11:37:51;98542.47;;;2.71;79.41
25510;BME280;13413;52.336;21.200;2023-11-25T11:40:39;98537.48;;;2.70;79.30
25510;BME280;13413;52.336;21.200;2023-11-25T11:43:26;98544.45;;;2.70;79.44
25510;BME280;13413;52.336;21.200;2023-11-25T11:46:14;98544.66;;;2.69;79.19
25510;BME280;13413;52.336;21.200;2023-11-25T11:49:02;98552.44;;;2.71;79.38
25510;BME280;13413;52.336;21.200;2023-11-25T11:52:01;98553.17;;;2.73;79.35
25510;BME280;13413;52.336;21.200;2023-11-25T11:54:49;98557.77;;;2.70;79.06
25510;BME280;13413;52.336;21.200;2023-11-25T11:58:03;98561.35;;;2.67;79.35
25510;BME280;13413;52.336;21.200;2023-11-25T12:00:54;98562.02;;;2.69;79.25
25510;BME280;13413;52.336;21.200;2023-11-25T12:03:56;98561.79;;;2.73;79.28
25510;BME280;13413;52.336;21.200;2023-11-25T12:06:43;98567.80;;;2.75;79.06
25510;BME280;13413;52.336;21.200;2023-11-25T12:09:31;98563.37;;;2.77;79.12
25510;BME280;13413;52.336;21.200;2023-11-25T12:12:18;98564.73;;;2.81;78.96
25510;BME280;13413;52.336;21.200;2023-11-25T12:15:09;98563.86;;;2.86;79.07
25510;BME280;13413;52.336;21.200;2023-11-25T12:17:56;98561.40;;;2.88;78.79
25510;BME280;13413;52.336;21.200;2023-11-25T12:20:44;98564.50;;;2.89;78.67
25510;BME280;13413;52.336;21.200;2023-11-25T12:23:32;98562.90;;;2.90;78.61
25510;BME280;13413;52.336;21.200;2023-11-25T12:26:21;98566.07;;;2.90;78.73
25510;BME280;13413;52.336;21.200;2023-11-25T12:29:13;98570.27;;;2.90;78.69
25510;BME280;13413;52.336;21.200;2023-11-25T12:32:00;98571.14;;;2.85;78.35
25510;BME280;13413;52.336;21.200;2023-11-25T12:34:49;98574.13;;;2.89;78.36
25510;BME280;13413;52.336;21.200;2023-11-25T12:37:36;98571.70;;;2.89;78.07
25510;BME280;13413;52.336;21.200;2023-11-25T12:40:26;98570.66;;;2.86;77.75
25510;BME280;13413;52.336;21.200;2023-11-25T12:43:15;98576.96;;;2.89;78.15
25510;BME280;13413;52.336;21.200;2023-11-25T12:46:10;98579.74;;;2.89;78.12
25510;BME280;13413;52.336;21.200;2023-11-25T12:48:56;98578.92;;;2.90;78.10
25510;BME280;13413;52.336;21.200;2023-11-25T12:51:43;98583.06;;;2.89;77.96
25510;BME280;13413;52.336;21.200;2023-11-25T12:54:43;98585.73;;;2.90;78.14
25510;BME280;13413;52.336;21.200;2023-11-25T12:57:31;98585.58;;;2.90;77.82
25510;BME280;13413;52.336;21.200;2023-11-25T13:00:20;98588.74;;;2.90;77.74
25510;BME280;13413;52.336;21.200;2023-11-25T13:03:07;98588.98;;;2.91;77.79
25510;BME280;13413;52.336;21.200;2023-11-25T13:05:59;98592.42;;;2.93;77.87
25510;BME280;13413;52.336;21.200;2023-11-25T13:08:47;98593.92;;;2.90;77.91
25510;BME280;13413;52.336;21.200;2023-11-25T13:11:35;98594.87;;;2.90;77.89
25510;BME280;13413;52.336;21.200;2023-11-25T13:14:22;98597.75;;;2.89;77.83
25510;BME280;13413;52.336;21.200;2023-11-25T13:17:10;98605.64;;;2.90;77.82
25510;BME280;13413;52.336;21.200;2023-11-25T13:19:57;98610.21;;;2.90;77.87
25510;BME280;13413;52.336;21.200;2023-11-25T13:22:45;98614.54;;;2.87;77.46
25510;BME280;13413;52.336;21.200;2023-11-25T13:25:33;98617.83;;;2.87;77.48
25510;BME280;13413;52.336;21.200;2023-11-25T13:28:21;98616.80;;;2.90;77.66
25510;BME280;13413;52.336;21.200;2023-11-25T13:31:09;98617.76;;;2.88;77.54
25510;BME280;13413;52.336;21.200;2023-11-25T13:33:56;98626.88;;;2.91;77.25
25510;BME280;13413;52.336;21.200;2023-11-25T13:36:44;98624.48;;;2.92;77.17
25510;BME280;13413;52.336;21.200;2023-11-25T13:39:31;98625.58;;;2.91;76.91
25510;BME280;13413;52.336;21.200;2023-11-25T13:42:17;98624.73;;;2.93;76.95
25510;BME280;13413;52.336;21.200;2023-11-25T13:47:48;98632.45;;;2.95;76.70
25510;BME280;13413;52.336;21.200;2023-11-25T13:50:35;98638.38;;;2.95;76.58
25510;BME280;13413;52.336;21.200;2023-11-25T13:53:23;98641.82;;;2.96;76.59
25510;BME280;13413;52.336;21.200;2023-11-25T13:56:13;98643.36;;;2.93;76.48
25510;BME280;13413;52.336;21.200;2023-11-25T13:59:01;98647.30;;;2.91;76.23
25510;BME280;13413;52.336;21.200;2023-11-25T14:01:49;98652.30;;;2.91;76.36
25510;BME280;13413;52.336;21.200;2023-11-25T14:04:38;98652.90;;;2.89;76.23
25510;BME280;13413;52.336;21.200;2023-11-25T14:07:26;98659.80;;;2.88;76.21
25510;BME280;13413;52.336;21.200;2023-11-25T14:13:01;98657.45;;;2.89;76.09
25510;BME280;13413;52.336;21.200;2023-11-25T14:15:49;98657.02;;;2.91;76.24
25510;BME280;13413;52.336;21.200;2023-11-25T14:18:36;98658.77;;;2.92;76.41
25510;BME280;13413;52.336;21.200;2023-11-25T14:21:24;98663.09;;;2.93;76.15
25510;BME280;13413;52.336;21.200;2023-11-25T14:24:12;98662.70;;;2.93;75.97
25510;BME280;13413;52.336;21.200;2023-11-25T14:26:59;98667.29;;;2.91;75.76
25510;BME280;13413;52.336;21.200;2023-11-25T14:29:47;98666.11;;;2.89;75.87
25510;BME280;13413;52.336;21.200;2023-11-25T14:32:34;98663.27;;;2.93;76.20
25510;BME280;13413;52.336;21.200;2023-11-25T14:35:21;98666.24;;;2.91;75.67
25510;BME280;13413;52.336;21.200;2023-11-25T14:38:09;98665.43;;;2.91;75.64
25510;BME280;13413;52.336;21.200;2023-11-25T14:40:56;98666.98;;;2.89;75.24
25510;BME280;13413;52.336;21.200;2023-11-25T14:43:43;98666.72;;;2.87;75.20
25510;BME280;13413;52.336;21.200;2023-11-25T14:46:31;98669.21;;;2.87;75.29
25510;BME280;13413;52.336;21.200;2023-11-25T14:49:19;98682.66;;;2.85;75.06
25510;BME280;13413;52.336;21.200;2023-11-25T14:52:07;98685.33;;;2.87;75.33
25510;BME280;13413;52.336;21.200;2023-11-25T14:54:54;98685.95;;;2.88;75.15
25510;BME280;13413;52.336;21.200;2023-11-25T14:57:42;98688.73;;;2.88;75.14
25510;BME280;13413;52.336;21.200;2023-11-25T15:00:29;98685.37;;;2.87;74.87
25510;BME280;13413;52.336;21.200;2023-11-25T15:03:17;98683.44;;;2.87;75.09
25510;BME280;13413;52.336;21.200;2023-11-25T15:06:05;98681.46;;;2.89;75.05
25510;BME280;13413;52.336;21.200;2023-11-25T15:08:52;98678.33;;;2.93;75.14
25510;BME280;13413;52.336;21.200;2023-11-25T15:11:41;98681.69;;;2.95;75.12
25510;BME280;13413;52.336;21.200;2023-11-25T15:14:28;98680.07;;;2.95;75.34
25510;BME280;13413;52.336;21.200;2023-11-25T15:17:16;98685.17;;;3.00;75.06
25510;BME280;13413;52.336;21.200;2023-11-25T15:20:05;98692.30;;;3.00;74.89
25510;BME280;13413;52.336;21.200;2023-11-25T15:22:53;98692.69;;;3.01;75.14
25510;BME280;13413;52.336;21.200;2023-11-25T15:25:40;98688.95;;;3.02;75.25
25510;BME280;13413;52.336;21.200;2023-11-25T15:28:28;98694.49;;;3.02;75.41
25510;BME280;13413;52.336;21.200;2023-11-25T15:31:16;98690.53;;;3.00;75.20
25510;BME280;13413;52.336;21.200;2023-11-25T15:34:04;98694.92;;;3.00;75.14
25510;BME280;13413;52.336;21.200;2023-11-25T15:36:52;98696.48;;;3.02;75.15
25510;BME280;13413;52.336;21.200;2023-11-25T15:39:39;98698.30;;;3.00;74.75
25510;BME280;13413;52.336;21.200;2023-11-25T15:42:26;98702.52;;;2.96;74.50